Time;durP1;ratioP1;P1;durP2;ratioP2;P2;SDS_P1;SDS_P2;PMS_P1;PMS_P2;Temp;Humidity;BMP_temperature;BMP_pressure;BME280_temperature;BME280_humidity;BME280_pressure;Samples;Min_cycle;Max_cycle;Signal;HPM_P1;HPM_P2
2023/01/14 00:03:03;;;;;;;14.70;7.70;;;;;;;5.18;83.36;99528.83;210476;1291;224661;-66
2023/01/14 00:08:07;;;;;;;43.70;23.10;;;;;;;5.22;83.90;99534.73;208925;1294;140931;-67
2023/01/14 00:13:10;;;;;;;50.00;41.00;;;;;;;5.28;83.90;99539.98;210650;1292;141257;-67
2023/01/14 00:18:13;;;;;;;12.30;8.10;;;;;;;5.36;84.06;99539.41;210634;1295;140885;-66
2023/01/14 00:23:15;;;;;;;11.90;9.20;;;;;;;5.41;84.39;99538.55;210730;1298;141628;-68
2023/01/14 00:28:18;;;;;;;17.00;10.10;;;;;;;5.45;84.02;99541.55;210329;1295;146042;-67
2023/01/14 00:33:22;;;;;;;14.40;9.70;;;;;;;5.51;84.05;99545.23;209399;1295;142307;-67
2023/01/14 00:38:26;;;;;;;11.30;9.80;;;;;;;5.59;84.08;99547.00;210734;1290;142265;-64
2023/01/14 00:43:28;;;;;;;14.00;9.40;;;;;;;5.63;84.20;99542.36;209404;1291;141251;-67
2023/01/14 00:48:35;;;;;;;13.10;7.40;;;;;;;5.61;84.00;99555.34;209087;1285;140500;-67
2023/01/14 00:53:39;;;;;;;12.90;7.60;;;;;;;5.53;83.74;99568.09;209537;1286;140181;-67
2023/01/14 00:58:42;;;;;;;12.60;8.80;;;;;;;5.43;83.73;99570.27;208904;1293;141809;-67
2023/01/14 01:03:51;;;;;;;14.00;8.60;;;;;;;5.42;83.84;99569.59;208854;1285;141815;-66
2023/01/14 01:09:00;;;;;;;17.70;9.10;;;;;;;5.40;83.68;99573.73;209191;1300;139809;-66
2023/01/14 01:14:04;;;;;;;10.20;6.60;;;;;;;5.33;83.81;99576.45;208392;1285;139633;-65
2023/01/14 01:19:07;;;;;;;9.20;6.50;;;;;;;5.25;84.11;99578.77;208733;1291;139741;-65
2023/01/14 01:24:10;;;;;;;12.90;6.70;;;;;;;5.17;83.91;99578.63;207838;1285;139903;-64
2023/01/14 01:29:13;;;;;;;9.30;6.80;;;;;;;5.13;83.58;99581.39;209004;1285;139744;-65
2023/01/14 01:34:16;;;;;;;8.70;5.60;;;;;;;5.11;84.06;99578.05;208564;1291;141241;-66
2023/01/14 01:39:19;;;;;;;11.10;5.90;;;;;;;5.04;83.44;99577.76;208578;1278;247364;-67
2023/01/14 01:44:22;;;;;;;6.10;5.20;;;;;;;4.94;83.61;99586.15;208445;1296;142231;-65
2023/01/14 01:49:30;;;;;;;11.70;5.40;;;;;;;4.88;83.11;99597.09;208151;1289;140568;-66
2023/01/14 01:54:38;;;;;;;5.70;4.30;;;;;;;4.87;83.43;99602.10;209283;1300;140934;-66
2023/01/14 01:59:47;;;;;;;6.90;3.60;;;;;;;4.92;83.46;99610.29;208513;1298;247072;-65
2023/01/14 02:04:51;;;;;;;8.70;4.80;;;;;;;4.97;83.64;99608.30;208687;1295;139532;-65
2023/01/14 02:09:59;;;;;;;6.50;4.60;;;;;;;5.05;83.60;99607.31;209584;1296;140717;-65
2023/01/14 02:15:21;;;;;;;8.30;5.20;;;;;;;5.09;83.28;99602.72;210147;1293;140821;-67
2023/01/14 02:20:46;;;;;;;3.10;2.50;;;;;;;5.16;83.51;99612.33;210619;1292;140239;-66
2023/01/14 02:26:41;;;;;;;7.20;3.10;;;;;;;5.24;83.31;99610.03;210466;1295;139960;-67
2023/01/14 02:31:53;;;;;;;10.90;3.10;;;;;;;5.32;83.13;99615.52;210763;1295;139658;-66
2023/01/14 02:37:07;;;;;;;4.70;3.00;;;;;;;5.32;82.91;99623.05;209871;1295;139624;-66
2023/01/14 02:47:46;;;;;;;8.40;2.90;;;;;;;5.45;82.78;99637.30;209175;1295;139871;-65
2023/01/14 02:52:49;;;;;;;6.20;2.60;;;;;;;5.45;82.29;99637.70;209935;1298;140233;-66
2023/01/14 02:58:04;;;;;;;5.90;2.40;;;;;;;5.45;82.46;99635.06;210033;1296;140397;-63
2023/01/14 03:03:23;;;;;;;7.90;2.60;;;;;;;5.50;82.47;99637.41;208934;1291;140270;-64
2023/01/14 03:08:55;;;;;;;6.40;2.50;;;;;;;5.54;82.40;99640.57;208844;1295;140019;-64
2023/01/14 03:14:08;;;;;;;6.90;2.30;;;;;;;5.58;82.27;99652.73;208200;1296;219990;-64
2023/01/14 03:19:21;;;;;;;4.30;2.40;;;;;;;5.58;82.11;99659.80;208013;1295;140203;-66
2023/01/14 03:24:45;;;;;;;12.00;10.80;;;;;;;5.62;82.57;99661.15;207624;1296;139999;-66
2023/01/14 03:29:54;;;;;;;3.80;2.50;;;;;;;5.62;82.58;99669.38;208635;1292;141131;-66
2023/01/14 03:35:09;;;;;;;3.10;2.70;;;;;;;5.61;82.27;99670.59;208510;1299;141142;-71
2023/01/14 03:40:15;;;;;;;12.00;3.40;;;;;;;5.63;82.01;99673.52;207500;1286;139400;-66
2023/01/14 03:45:32;;;;;;;5.20;2.60;;;;;;;5.67;82.04;99675.48;209511;1284;144362;-65
2023/01/14 03:50:54;;;;;;;7.70;3.80;;;;;;;5.69;81.85;99670.47;208038;1286;140313;-64
2023/01/14 03:56:25;;;;;;;4.50;3.10;;;;;;;5.66;82.00;99676.45;209013;1293;139362;-67
2023/01/14 04:01:40;;;;;;;5.20;3.40;;;;;;;5.67;81.70;99685.94;208159;1285;140643;-66
2023/01/14 04:06:44;;;;;;;3.60;2.30;;;;;;;5.67;81.58;99686.91;208932;1292;140138;-68
2023/01/14 04:11:48;;;;;;;5.10;3.40;;;;;;;5.69;81.47;99688.49;209218;1295;140501;-66
2023/01/14 04:16:55;;;;;;;6.30;2.80;;;;;;;5.69;81.89;99691.47;210700;1295;139969;-67
2023/01/14 04:21:57;;;;;;;4.60;4.30;;;;;;;5.72;81.36;99694.98;210514;1301;140681;-66
2023/01/14 04:27:01;;;;;;;6.30;2.80;;;;;;;5.76;81.38;99693.71;209655;1286;142899;-67
2023/01/14 04:32:04;;;;;;;3.60;2.90;;;;;;;5.80;81.27;99697.48;210636;1286;141462;-67
2023/01/14 04:37:07;;;;;;;4.80;2.60;;;;;;;5.80;81.39;99701.44;210652;1291;139416;-67
2023/01/14 04:42:28;;;;;;;3.90;2.80;;;;;;;5.82;81.15;99710.48;210048;1294;140233;-66
2023/01/14 04:47:32;;;;;;;2.50;2.30;;;;;;;5.84;80.92;99721.16;209139;1293;141307;-66
2023/01/14 04:52:37;;;;;;;4.00;2.60;;;;;;;5.85;80.83;99722.45;208694;1286;139792;-67
2023/01/14 04:57:40;;;;;;;4.90;2.20;;;;;;;5.84;81.24;99719.92;208992;1291;139926;-67
2023/01/14 05:02:44;;;;;;;4.20;2.20;;;;;;;5.80;81.03;99724.80;208747;1292;138983;-68
2023/01/14 05:07:48;;;;;;;3.10;2.40;;;;;;;5.72;80.66;99727.88;208910;1294;139945;-67
2023/01/14 05:12:58;;;;;;;3.60;2.00;;;;;;;5.68;81.07;99734.39;208209;1292;139855;-67
2023/01/14 05:18:03;;;;;;;3.70;2.10;;;;;;;5.67;80.93;99747.05;208639;1294;247209;-66
2023/01/14 05:23:17;;;;;;;5.90;2.60;;;;;;;5.60;80.75;99753.42;208612;1291;151634;-67
2023/01/14 05:28:23;;;;;;;6.30;3.00;;;;;;;5.53;80.91;99760.61;208893;1294;139566;-66
2023/01/14 05:33:29;;;;;;;4.00;2.30;;;;;;;5.43;80.84;99763.09;208862;1284;139816;-66
2023/01/14 05:38:32;;;;;;;5.70;3.90;;;;;;;5.39;80.89;99773.29;208658;1285;139793;-68
2023/01/14 05:48:57;;;;;;;4.40;2.30;;;;;;;5.39;80.94;99776.01;208525;1294;140448;-66
2023/01/14 05:54:01;;;;;;;2.30;2.00;;;;;;;5.31;80.86;99785.73;208092;1291;139733;-67
2023/01/14 05:59:05;;;;;;;3.90;2.00;;;;;;;5.21;80.73;99791.00;209334;1288;139401;-66
2023/01/14 06:09:30;;;;;;;5.00;2.60;;;;;;;5.19;81.17;99796.00;208475;1286;140885;-66
2023/01/14 06:14:33;;;;;;;3.30;2.40;;;;;;;5.18;81.12;99806.94;209950;1295;140942;-66
2023/01/14 06:19:41;;;;;;;3.50;2.50;;;;;;;5.15;81.07;99808.92;210690;1293;141240;-67
2023/01/14 06:24:44;;;;;;;4.40;2.90;;;;;;;5.15;81.07;99812.58;209512;1292;140337;-66
2023/01/14 06:29:47;;;;;;;2.80;2.60;;;;;;;5.20;81.10;99814.98;210277;1295;224876;-67
2023/01/14 06:34:49;;;;;;;3.80;2.70;;;;;;;5.25;81.15;99822.23;210070;1285;140968;-66
2023/01/14 06:39:51;;;;;;;5.70;4.50;;;;;;;5.29;81.49;99820.59;209862;1291;139549;-66
2023/01/14 06:44:55;;;;;;;4.60;3.10;;;;;;;5.39;81.00;99830.26;209781;1292;141460;-67
2023/01/14 06:49:58;;;;;;;6.70;2.00;;;;;;;5.46;81.47;99833.50;208472;1300;139818;-68
2023/01/14 06:55:01;;;;;;;3.10;1.80;;;;;;;5.48;80.99;99836.39;208897;1292;140026;-68
2023/01/14 07:00:04;;;;;;;3.80;2.20;;;;;;;5.47;81.10;99840.88;209550;1288;140240;-67
2023/01/14 07:05:07;;;;;;;2.00;1.30;;;;;;;5.49;80.99;99851.38;208699;1295;141389;-66
2023/01/14 07:10:10;;;;;;;3.90;2.20;;;;;;;5.51;80.84;99854.85;209150;1292;139852;-66
2023/01/14 07:15:15;;;;;;;3.20;2.40;;;;;;;5.51;81.30;99858.20;208782;1289;139298;-68
2023/01/14 07:20:19;;;;;;;3.50;2.40;;;;;;;5.52;81.09;99857.09;208187;1292;140439;-66
2023/01/14 07:25:26;;;;;;;4.50;2.40;;;;;;;5.55;80.73;99860.27;208742;1286;142153;-66
2023/01/14 07:30:29;;;;;;;3.20;1.90;;;;;;;5.54;81.08;99866.94;208100;1292;140338;-66
2023/01/14 07:35:34;;;;;;;3.40;2.10;;;;;;;5.55;81.10;99871.14;208653;1292;139767;-66
2023/01/14 07:40:38;;;;;;;2.80;2.60;;;;;;;5.58;81.24;99880.99;208594;1279;139612;-67
2023/01/14 07:45:41;;;;;;;6.00;2.90;;;;;;;5.62;80.72;99886.78;209158;1294;140385;-67
2023/01/14 07:50:45;;;;;;;8.70;2.90;;;;;;;5.65;80.61;99891.15;209773;1286;140210;-65
2023/01/14 07:55:47;;;;;;;3.00;2.40;;;;;;;5.70;81.23;99898.05;207848;1294;140075;-67
2023/01/14 08:00:51;;;;;;;3.00;2.40;;;;;;;5.76;80.72;99897.54;208691;1285;139336;-67
2023/01/14 08:05:54;;;;;;;6.50;2.90;;;;;;;5.82;80.61;99895.17;210207;1298;141281;-66
2023/01/14 08:11:02;;;;;;;6.50;2.50;;;;;;;5.91;80.73;99895.75;208789;1278;140022;-67
2023/01/14 08:16:04;;;;;;;;;;;;;;;5.99;80.42;99906.33;210436;1294;139921;-65
2023/01/14 08:21:10;;;;;;;7.20;2.70;;;;;;;6.05;80.53;99910.98;211254;1285;126084;-66
2023/01/14 08:26:14;;;;;;;3.30;2.30;;;;;;;6.11;80.41;99908.66;210432;1295;139395;-66
2023/01/14 08:31:18;;;;;;;4.10;2.50;;;;;;;6.20;80.14;99909.32;209962;1292;221360;-67
2023/01/14 08:36:21;;;;;;;4.20;2.70;;;;;;;6.27;80.16;99913.20;210157;1294;458629;-66
2023/01/14 08:41:27;;;;;;;5.10;2.70;;;;;;;6.30;79.98;99918.87;208833;1285;139802;-67
2023/01/14 08:46:31;;;;;;;7.50;3.80;;;;;;;6.34;79.55;99924.88;207991;1286;141130;-66
2023/01/14 08:51:36;;;;;;;7.90;3.00;;;;;;;6.41;79.40;99929.18;210093;1294;140469;-67
2023/01/14 08:56:39;;;;;;;5.70;2.80;;;;;;;6.46;79.80;99940.50;209705;1292;141638;-67
2023/01/14 09:01:43;;;;;;;6.50;2.40;;;;;;;6.56;79.54;99939.45;208180;1292;141371;-66
2023/01/14 09:17:44;;;;;;;3.90;2.90;;;;;;;6.74;79.40;99951.63;209063;1298;139445;-66
2023/01/14 09:22:51;;;;;;;7.10;2.80;;;;;;;6.79;79.13;99956.89;208815;1286;140159;-66
2023/01/14 09:27:55;;;;;;;8.60;3.20;;;;;;;6.87;79.25;99946.37;209673;1288;140963;-67
2023/01/14 09:32:59;;;;;;;5.40;2.60;;;;;;;6.97;79.09;99947.59;208859;1294;142072;-66
2023/01/14 09:38:06;;;;;;;8.00;2.40;;;;;;;7.07;78.88;99947.96;208730;1286;140513;-65
2023/01/14 09:43:19;;;;;;;5.30;2.20;;;;;;;7.20;78.81;99946.48;209333;1292;249138;-66
2023/01/14 09:48:24;;;;;;;3.40;2.40;;;;;;;7.31;78.77;99946.55;208425;1292;140322;-66
2023/01/14 09:53:46;;;;;;;7.20;2.80;;;;;;;7.33;78.42;99944.86;210067;1286;141713;-66
2023/01/14 09:58:57;;;;;;;2.50;2.10;;;;;;;7.34;78.32;99949.82;207988;1292;141014;-67
2023/01/14 10:04:18;;;;;;;7.00;3.30;;;;;;;7.38;78.24;99948.09;210296;1298;139285;-67
2023/01/14 10:09:42;;;;;;;5.40;3.10;;;;;;;7.44;78.21;99950.45;210520;1288;139449;-67
2023/01/14 10:14:59;;;;;;;6.50;1.80;;;;;;;7.52;78.03;99941.73;210716;1285;141153;-67
2023/01/14 10:20:29;;;;;;;5.00;2.20;;;;;;;7.62;77.66;99938.40;208683;1294;140982;-67
2023/01/14 10:25:33;;;;;;;12.80;3.80;;;;;;;7.66;77.68;99934.60;210047;1286;139607;-66
2023/01/14 10:30:38;;;;;;;3.80;2.10;;;;;;;7.74;77.58;99933.97;209593;1284;140660;-67
2023/01/14 10:35:45;;;;;;;4.90;1.90;;;;;;;7.82;77.61;99940.55;207903;1286;140038;-66
2023/01/14 10:40:50;;;;;;;5.70;2.50;;;;;;;7.91;77.47;99935.08;209203;1288;140992;-66
2023/01/14 10:45:55;;;;;;;5.70;3.10;;;;;;;8.09;77.45;99930.96;208217;1292;139105;-68
2023/01/14 10:51:37;;;;;;;5.50;3.60;;;;;;;8.20;77.54;99934.30;209197;1291;141420;-66
2023/01/14 10:56:51;;;;;;;5.70;3.30;;;;;;;8.30;77.18;99934.25;208086;1285;140522;-67
2023/01/14 11:01:55;;;;;;;9.10;4.00;;;;;;;8.35;76.73;99932.61;208998;1291;140420;-66
2023/01/14 11:07:12;;;;;;;4.70;2.70;;;;;;;8.39;76.82;99931.61;208670;1292;139603;-67
2023/01/14 11:12:32;;;;;;;8.90;2.40;;;;;;;8.42;76.51;99929.92;207928;1289;140196;-68
2023/01/14 11:17:35;;;;;;;5.80;3.40;;;;;;;8.42;76.20;99921.21;208532;1292;139552;-67
2023/01/14 11:22:38;;;;;;;3.30;2.10;;;;;;;8.49;76.55;99917.13;208866;1285;140230;-68
2023/01/14 11:27:47;;;;;;;5.30;2.50;;;;;;;8.48;76.02;99914.23;208692;1296;140058;-66
2023/01/14 11:32:54;;;;;;;4.40;2.50;;;;;;;8.51;75.90;99902.43;208617;1285;140239;-67
2023/01/14 11:38:02;;;;;;;6.90;3.20;;;;;;;8.64;76.00;99893.11;209286;1292;139109;-67
2023/01/14 11:43:10;;;;;;;3.80;2.50;;;;;;;8.78;75.74;99887.23;208030;1289;139769;-67
2023/01/14 11:48:29;;;;;;;3.10;2.30;;;;;;;8.67;75.23;99885.23;208005;1292;139319;-67
2023/01/14 11:53:50;;;;;;;4.50;2.00;;;;;;;8.57;75.19;99884.42;208461;1301;141080;-66
2023/01/14 11:58:54;;;;;;;5.10;2.50;;;;;;;8.55;75.37;99879.34;207868;1294;140364;-66
2023/01/14 12:04:16;;;;;;;7.00;2.30;;;;;;;8.62;75.40;99877.05;209455;1284;139572;-66
2023/01/14 12:09:38;;;;;;;5.80;2.30;;;;;;;8.59;74.99;99865.15;210119;1292;150786;-68
2023/01/14 12:20:16;;;;;;;3.30;2.30;;;;;;;8.91;74.70;99851.46;210326;1298;139708;-68
2023/01/14 12:25:24;;;;;;;4.80;1.90;;;;;;;9.06;74.60;99853.51;209244;1286;140469;-66
2023/01/14 12:30:47;;;;;;;4.20;2.00;;;;;;;9.13;74.05;99852.42;210720;1298;140473;-67
2023/01/14 12:36:14;;;;;;;8.20;3.40;;;;;;;9.20;73.77;99838.97;210529;1292;139115;-68
2023/01/14 12:47:07;;;;;;;6.70;3.70;;;;;;;9.11;73.37;99827.64;208561;1291;220189;-66
2023/01/14 12:52:13;;;;;;;6.50;2.40;;;;;;;9.09;73.20;99830.09;208601;1279;140499;-68
2023/01/14 12:57:22;;;;;;;3.50;2.50;;;;;;;9.03;73.08;99835.10;208392;1300;139566;-69
2023/01/14 13:02:34;;;;;;;3.30;1.70;;;;;;;9.02;73.18;99834.13;208836;1291;140248;-68
2023/01/14 13:07:48;;;;;;;6.70;3.00;;;;;;;9.07;73.22;99834.08;208024;1284;139571;-68
2023/01/14 13:12:52;;;;;;;4.10;2.20;;;;;;;9.05;73.14;99843.42;208172;1294;140973;-68
2023/01/14 13:17:59;;;;;;;4.40;3.00;;;;;;;9.02;73.08;99839.77;207780;1294;139811;-68
2023/01/14 13:23:05;;;;;;;17.60;3.10;;;;;;;9.01;72.94;99836.88;207976;1278;139478;-66
2023/01/14 13:28:12;;;;;;;6.20;3.10;;;;;;;8.91;72.84;99834.12;208017;1285;140422;-69
2023/01/14 13:33:29;;;;;;;8.20;3.30;;;;;;;8.76;72.78;99829.22;208053;1278;140911;-68
2023/01/14 13:38:37;;;;;;;4.70;3.70;;;;;;;8.62;72.79;99822.25;208122;1286;140073;-67
2023/01/14 13:43:51;;;;;;;;;;;;;;;8.50;72.83;99820.29;209238;1294;140824;-68
2023/01/14 13:48:58;;;;;;;7.80;4.00;;;;;;;8.42;73.17;99820.02;208598;1294;128750;-67
2023/01/14 13:54:05;;;;;;;;;;;;;;;8.41;73.01;99820.27;208802;1294;140632;-67
2023/01/14 13:59:26;;;;;;;6.40;2.50;;;;;;;8.33;72.97;99818.91;208930;1286;126374;-67
2023/01/14 14:04:54;;;;;;;3.00;2.70;;;;;;;8.26;72.93;99817.44;208779;1285;139939;-68
2023/01/14 14:10:03;;;;;;;9.00;4.00;;;;;;;8.16;72.87;99806.25;209474;1300;140773;-67
2023/01/14 14:15:23;;;;;;;3.50;2.70;;;;;;;8.09;72.89;99807.40;209257;1278;140497;-67
2023/01/14 14:20:41;;;;;;;13.10;4.00;;;;;;;7.94;72.76;99804.91;210822;1294;139607;-67
2023/01/14 14:25:47;;;;;;;10.10;4.80;;;;;;;7.83;72.70;99800.92;210114;1295;139701;-65
2023/01/14 14:31:05;;;;;;;8.70;3.60;;;;;;;7.74;73.01;99792.35;209245;1295;140064;-67
2023/01/14 14:36:22;;;;;;;196.70;96.50;;;;;;;7.58;72.78;99794.80;207736;1294;209256;-66
2023/01/14 14:41:33;;;;;;;89.00;39.80;;;;;;;7.48;73.29;99790.36;209167;1292;140696;-68
2023/01/14 14:46:41;;;;;;;210.10;87.70;;;;;;;7.41;73.44;99786.97;208879;1278;140655;-68
2023/01/14 14:51:51;;;;;;;89.60;41.30;;;;;;;7.31;73.57;99784.26;208286;1292;140498;-69
2023/01/14 14:57:00;;;;;;;16.40;10.50;;;;;;;7.16;73.64;99780.86;209662;1294;141052;-69
2023/01/14 15:02:24;;;;;;;6.50;3.70;;;;;;;6.98;73.32;99770.83;207949;1286;141987;-68
2023/01/14 15:07:30;;;;;;;10.70;5.90;;;;;;;6.82;74.08;99768.44;207927;1284;140175;-68
2023/01/14 15:12:34;;;;;;;10.90;6.50;;;;;;;6.66;74.13;99763.62;207843;1286;140256;-69
2023/01/14 15:17:38;;;;;;;11.00;5.30;;;;;;;6.51;74.20;99767.19;207971;1287;139199;-69
2023/01/14 15:22:42;;;;;;;10.00;6.20;;;;;;;6.38;74.37;99769.35;209144;1291;140908;-70
2023/01/14 15:27:48;;;;;;;10.00;4.70;;;;;;;6.29;74.98;99764.55;207881;1291;142710;-68
2023/01/14 15:32:55;;;;;;;9.80;4.80;;;;;;;6.16;74.71;99758.53;208471;1291;140211;-65
2023/01/14 15:38:09;;;;;;;13.90;5.90;;;;;;;6.07;74.88;99749.89;208570;1286;140311;-65
2023/01/14 15:43:24;;;;;;;10.70;6.00;;;;;;;5.98;75.05;99736.25;207588;1285;141712;-67
2023/01/14 15:48:27;;;;;;;11.60;7.30;;;;;;;5.89;75.31;99737.50;208433;1286;139094;-64
2023/01/14 15:53:32;;;;;;;15.90;6.40;;;;;;;5.83;75.33;99735.08;209064;1286;141032;-66
2023/01/14 15:58:41;;;;;;;10.10;5.80;;;;;;;5.73;75.58;99726.91;210271;1285;139731;-64
2023/01/14 16:03:49;;;;;;;8.00;5.90;;;;;;;5.62;75.40;99717.79;210570;1299;141786;-67
2023/01/14 16:08:55;;;;;;;14.30;6.00;;;;;;;5.54;75.64;99712.81;209815;1294;140642;-67
2023/01/14 16:14:00;;;;;;;12.80;5.40;;;;;;;5.50;75.71;99706.39;210668;1295;141209;-70
2023/01/14 16:19:08;;;;;;;15.10;7.20;;;;;;;5.41;75.42;99694.88;210540;1287;142055;-71
2023/01/14 16:24:11;;;;;;;15.70;7.80;;;;;;;5.34;75.69;99682.59;210387;1295;142286;-71
2023/01/14 16:29:15;;;;;;;17.90;9.70;;;;;;;5.33;75.66;99678.39;209529;1298;142777;-70
2023/01/14 16:34:19;;;;;;;15.90;7.40;;;;;;;5.28;75.72;99667.81;210463;1285;139423;-71
2023/01/14 16:39:23;;;;;;;12.50;6.70;;;;;;;5.17;76.07;99665.04;209035;1286;140185;-70
2023/01/14 16:44:26;;;;;;;16.90;8.00;;;;;;;5.09;75.89;99667.02;208985;1291;140097;-68
2023/01/14 16:49:30;;;;;;;14.20;7.20;;;;;;;5.02;76.10;99660.30;207694;1285;140625;-69
2023/01/14 16:54:33;;;;;;;15.10;8.50;;;;;;;4.95;76.01;99648.25;207982;1300;140538;-68
2023/01/14 16:59:37;;;;;;;13.70;8.10;;;;;;;4.85;76.52;99639.23;209146;1291;139513;-66
2023/01/14 17:04:41;;;;;;;12.20;7.30;;;;;;;4.75;76.67;99635.41;207853;1284;139425;-67
2023/01/14 17:09:44;;;;;;;15.90;8.40;;;;;;;4.68;76.91;99627.43;208397;1279;142123;-69
2023/01/14 17:14:47;;;;;;;21.50;8.60;;;;;;;4.64;77.20;99615.80;207304;1291;140504;-68
2023/01/14 17:19:50;;;;;;;12.90;7.70;;;;;;;4.62;77.44;99618.55;207605;1285;139005;-67
2023/01/14 17:24:56;;;;;;;12.70;8.30;;;;;;;4.62;77.26;99619.81;208755;1286;139986;-67
2023/01/14 17:29:58;;;;;;;12.30;7.00;;;;;;;4.61;77.49;99619.04;209087;1292;139771;-66
2023/01/14 17:35:04;;;;;;;12.40;6.50;;;;;;;4.59;77.69;99619.65;208615;1292;139812;-67
2023/01/14 17:40:14;;;;;;;15.00;8.90;;;;;;;4.59;77.79;99612.66;208165;1287;140572;-67
2023/01/14 17:45:18;;;;;;;19.00;7.80;;;;;;;4.56;77.78;99597.70;208407;1291;142625;-65
2023/01/14 17:50:26;;;;;;;15.90;10.10;;;;;;;4.56;77.75;99588.46;209321;1288;219964;-65
2023/01/14 17:55:30;;;;;;;16.60;9.30;;;;;;;4.55;78.24;99573.71;209428;1286;139467;-66
2023/01/14 18:00:36;;;;;;;16.00;7.50;;;;;;;4.58;78.29;99562.32;208525;1285;140927;-67
2023/01/14 18:05:40;;;;;;;9.00;5.90;;;;;;;4.63;78.23;99556.33;208285;1293;142226;-68
2023/01/14 18:10:43;;;;;;;11.70;7.30;;;;;;;4.68;78.21;99539.65;208201;1278;140363;-66
2023/01/14 18:16:00;;;;;;;11.50;7.60;;;;;;;4.68;78.45;99528.76;209526;1291;139599;-65
2023/01/14 18:21:05;;;;;;;13.60;6.60;;;;;;;4.70;78.39;99522.19;210444;1285;141240;-67
2023/01/14 18:26:12;;;;;;;9.10;6.90;;;;;;;4.73;78.47;99512.89;210418;1299;140143;-66
2023/01/14 18:31:15;;;;;;;10.20;6.10;;;;;;;4.78;78.48;99510.70;210134;1283;140078;-67
2023/01/14 18:36:18;;;;;;;8.80;5.60;;;;;;;4.85;78.50;99507.18;207604;1291;140887;-67
2023/01/14 18:41:23;;;;;;;12.80;6.40;;;;;;;4.91;78.63;99501.19;208633;1291;140238;-66
2023/01/14 18:46:30;;;;;;;13.50;7.70;;;;;;;4.95;78.45;99496.46;207680;1291;139126;-64
2023/01/14 18:51:34;;;;;;;7.70;4.10;;;;;;;4.97;78.73;99490.09;208378;1286;139962;-66
2023/01/14 18:56:39;;;;;;;13.70;6.70;;;;;;;5.02;78.63;99482.48;208753;1286;140553;-64
2023/01/14 19:01:43;;;;;;;11.60;7.10;;;;;;;5.03;78.39;99475.79;208070;1282;141455;-64
2023/01/14 19:06:46;;;;;;;16.20;7.90;;;;;;;5.03;78.44;99464.98;209198;1285;139743;-66
2023/01/14 19:12:02;;;;;;;12.20;7.60;;;;;;;5.04;78.52;99451.16;208003;1285;140047;-68
2023/01/14 19:17:07;;;;;;;12.50;6.70;;;;;;;5.03;78.21;99443.80;207792;1283;140119;-67
2023/01/14 19:22:12;;;;;;;11.50;7.10;;;;;;;5.02;78.37;99428.89;208216;1293;139759;-66
2023/01/14 19:27:16;;;;;;;10.10;6.50;;;;;;;5.03;78.09;99417.18;208740;1292;140399;-68
2023/01/14 19:32:21;;;;;;;13.30;6.10;;;;;;;5.00;77.98;99411.53;207799;1294;140557;-66
2023/01/14 19:37:25;;;;;;;9.80;6.30;;;;;;;4.99;78.07;99400.60;208539;1294;144370;-67
2023/01/14 19:42:41;;;;;;;11.50;7.00;;;;;;;5.00;78.00;99389.87;207659;1291;140545;-67
2023/01/14 19:47:46;;;;;;;11.80;7.00;;;;;;;5.01;78.00;99388.94;207606;1285;140836;-67
2023/01/14 19:52:50;;;;;;;12.10;7.20;;;;;;;4.98;77.78;99376.06;209360;1291;140797;-66
2023/01/14 19:57:53;;;;;;;10.00;6.00;;;;;;;4.98;78.08;99378.02;208662;1301;140966;-67
2023/01/14 20:03:01;;;;;;;12.10;6.80;;;;;;;4.99;77.81;99367.32;210354;1293;141469;-67
2023/01/14 20:08:06;;;;;;;11.60;6.00;;;;;;;4.99;77.75;99363.63;209869;1289;151920;-67
2023/01/14 20:13:11;;;;;;;10.70;6.20;;;;;;;5.01;77.65;99348.70;209812;1300;139782;-67
2023/01/14 20:18:14;;;;;;;13.10;5.90;;;;;;;5.03;77.21;99338.38;210495;1299;140405;-67
2023/01/14 20:23:19;;;;;;;15.70;5.70;;;;;;;5.04;77.55;99336.34;210564;1301;141013;-67
2023/01/14 20:28:22;;;;;;;12.10;5.80;;;;;;;5.08;77.31;99333.16;210629;1290;142365;-67
2023/01/14 20:33:24;;;;;;;20.80;7.50;;;;;;;5.08;77.32;99326.33;208370;1287;543810;-66
2023/01/14 20:38:28;;;;;;;8.50;5.30;;;;;;;5.06;77.03;99319.35;210083;1292;142450;-66
2023/01/14 20:43:35;;;;;;;10.30;6.30;;;;;;;5.04;76.93;99310.17;209462;1290;140000;-65
2023/01/14 20:48:39;;;;;;;8.30;5.80;;;;;;;5.03;76.93;99307.77;208775;1292;140222;-66
2023/01/14 20:53:44;;;;;;;8.70;5.30;;;;;;;5.02;76.97;99297.45;209424;1291;139893;-67
2023/01/14 21:03:56;;;;;;;9.40;4.70;;;;;;;5.04;76.74;99291.15;208261;1285;141722;-65
2023/01/14 21:09:09;;;;;;;10.90;7.40;;;;;;;5.05;76.97;99290.46;209206;1286;140004;-65
2023/01/14 21:25:00;;;;;;;9.90;4.90;;;;;;;5.06;77.08;99287.29;208119;1292;140658;-65
2023/01/14 21:30:06;;;;;;;16.00;6.50;;;;;;;5.06;76.83;99279.23;207716;1294;139986;-65
2023/01/14 21:35:16;;;;;;;12.90;6.60;;;;;;;5.05;76.78;99269.40;208194;1295;140106;-66
2023/01/14 21:40:23;;;;;;;10.40;5.60;;;;;;;5.03;76.62;99267.50;209037;1296;140158;-65
2023/01/14 21:45:28;;;;;;;10.50;5.90;;;;;;;5.02;77.02;99262.46;209484;1297;140569;-66
2023/01/14 21:50:55;;;;;;;13.60;5.50;;;;;;;5.02;76.80;99253.28;210042;1294;139877;-66
2023/01/14 21:56:02;;;;;;;11.50;4.90;;;;;;;5.05;76.66;99246.69;209510;1294;207411;-66
2023/01/14 22:01:10;;;;;;;14.40;6.60;;;;;;;5.08;76.45;99235.09;208955;1292;141403;-67
2023/01/14 22:06:20;;;;;;;9.70;6.60;;;;;;;5.06;76.39;99217.02;210643;1296;139990;-66
2023/01/14 22:11:23;;;;;;;14.90;5.80;;;;;;;5.06;76.70;99206.77;210596;1295;235364;-67
2023/01/14 22:16:28;;;;;;;12.10;6.20;;;;;;;5.11;76.52;99203.26;210405;1287;140995;-66
2023/01/14 22:21:31;;;;;;;10.70;4.90;;;;;;;5.13;76.40;99196.05;210581;1295;139217;-65
2023/01/14 22:26:35;;;;;;;5.80;3.60;;;;;;;5.17;76.01;99180.91;210651;1295;141665;-65
2023/01/14 22:31:39;;;;;;;8.90;5.10;;;;;;;5.21;75.90;99162.81;210124;1286;139827;-66
2023/01/14 22:36:46;;;;;;;9.50;4.10;;;;;;;5.23;76.05;99154.05;208906;1286;140347;-65
2023/01/14 22:41:49;;;;;;;8.80;4.90;;;;;;;5.26;75.66;99142.73;208444;1285;139709;-65
2023/01/14 22:46:55;;;;;;;7.30;5.80;;;;;;;5.30;75.82;99129.17;209016;1284;140454;-64
2023/01/14 22:51:58;;;;;;;9.10;4.70;;;;;;;5.30;75.60;99123.32;208948;1291;139383;-66
2023/01/14 22:57:07;;;;;;;16.50;5.00;;;;;;;5.32;75.41;99111.11;208057;1285;143004;-65
2023/01/14 23:02:10;;;;;;;8.20;3.90;;;;;;;5.32;75.51;99098.34;207796;1286;234755;-66
2023/01/14 23:07:15;;;;;;;6.90;3.60;;;;;;;5.33;75.67;99089.63;208858;1285;139291;-67
2023/01/14 23:12:18;;;;;;;6.60;3.90;;;;;;;5.31;75.40;99085.79;208271;1292;139691;-67
2023/01/14 23:17:28;;;;;;;7.20;3.20;;;;;;;5.31;75.17;99082.45;208578;1293;139683;-66
2023/01/14 23:27:55;;;;;;;9.20;3.80;;;;;;;5.27;74.98;99060.52;209109;1286;139118;-66
2023/01/14 23:32:59;;;;;;;5.40;3.70;;;;;;;5.27;74.46;99047.84;209047;1285;139833;-65
2023/01/14 23:38:02;;;;;;;8.40;3.70;;;;;;;5.29;74.78;99038.23;208849;1286;140330;-63
2023/01/14 23:43:05;;;;;;;6.20;3.70;;;;;;;5.29;74.63;99025.87;209766;1292;140380;-64
2023/01/14 23:48:08;;;;;;;11.30;3.80;;;;;;;5.31;74.38;99029.27;209452;1292;139875;-64
2023/01/14 23:53:11;;;;;;;6.30;3.80;;;;;;;5.33;74.57;99016.08;210401;1295;140159;-64
2023/01/14 23:58:15;;;;;;;7.60;4.30;;;;;;;5.35;74.43;98998.91;210682;1297;139840;-64
